Time;durP1;ratioP1;P1;durP2;ratioP2;P2;SDS_P1;SDS_P2;PMS_P1;PMS_P2;Temp;Humidity;BMP_temperature;BMP_pressure;BME280_temperature;BME280_humidity;BME280_pressure;Samples;Min_cycle;Max_cycle;Signal;HPM_P1;HPM_P2
2024/03/27 00:00:07;;;;;;;0.22;0.22;;;9.40;99.90;;;;;;4992658;28;20034;-85
2024/03/27 00:02:34;;;;;;;0.60;0.60;;;9.40;1.00;;;;;;4989238;28;20034;-84
2024/03/27 00:05:00;;;;;;;0.57;0.40;;;9.30;1.00;;;;;;5009548;28;20049;-84
2024/03/27 00:07:27;;;;;;;0.20;0.20;;;9.30;1.00;;;;;;5000523;28;20045;-85
2024/03/27 00:09:53;;;;;;;0.50;0.50;;;9.30;1.00;;;;;;5011554;28;20334;-85
2024/03/27 00:12:19;;;;;;;2.25;2.15;;;9.30;1.00;;;;;;5010693;28;20034;-85
2024/03/27 00:14:45;;;;;;;0.30;0.30;;;9.20;1.00;;;;;;5028053;28;20387;-86
2024/03/27 00:17:12;;;;;;;0.75;0.75;;;9.20;1.00;;;;;;5003426;28;20035;-86
2024/03/27 00:19:38;;;;;;;0.32;0.32;;;9.20;1.00;;;;;;5002086;28;20045;-85
2024/03/27 00:22:04;;;;;;;0.80;0.80;;;9.20;1.00;;;;;;5018648;28;20626;-85
2024/03/27 00:24:31;;;;;;;0.85;0.68;;;9.20;1.00;;;;;;5013959;28;20058;-85
2024/03/27 00:26:57;;;;;;;0.93;0.25;;;9.20;1.00;;;;;;5025660;28;20042;-85
2024/03/27 00:29:23;;;;;;;0.35;0.35;;;9.20;1.00;;;;;;5003376;28;20046;-85
2024/03/27 00:31:50;;;;;;;0.77;0.75;;;9.30;99.90;;;;;;4983872;28;20396;-86
2024/03/27 00:34:16;;;;;;;0.73;0.73;;;9.20;99.90;;;;;;4985819;28;20057;-86
2024/03/27 00:36:42;;;;;;;0.20;0.20;;;9.20;99.90;;;;;;5021594;28;20026;-86
2024/03/27 00:39:09;;;;;;;0.57;0.50;;;9.10;99.90;;;;;;5002140;28;20042;-85
2024/03/27 00:41:35;;;;;;;0.20;0.20;;;9.00;99.90;;;;;;5001176;28;20045;-86
2024/03/27 00:44:01;;;;;;;0.55;0.55;;;9.00;1.00;;;;;;5013103;28;20068;-86
2024/03/27 00:46:27;;;;;;;0.30;0.30;;;8.90;1.00;;;;;;5008146;28;20026;-85
2024/03/27 00:48:53;;;;;;;0.32;0.32;;;8.80;1.00;;;;;;5019356;28;20034;-86
2024/03/27 00:51:20;;;;;;;1.20;0.65;;;8.80;1.00;;;;;;5039928;28;20053;-85
2024/03/27 00:53:46;;;;;;;0.50;0.50;;;8.80;1.00;;;;;;5018821;28;20379;-85
2024/03/27 00:56:12;;;;;;;0.28;0.28;;;8.70;1.00;;;;;;5019428;28;20057;-86
2024/03/27 00:58:38;;;;;;;0.52;0.45;;;8.50;1.00;;;;;;5010756;28;20048;-86
2024/03/27 01:01:04;;;;;;;0.38;0.38;;;8.40;1.00;;;;;;4996384;28;20054;-85
2024/03/27 01:03:30;;;;;;;0.20;0.20;;;8.30;1.00;;;;;;4993447;28;20037;-85
2024/03/27 01:05:56;;;;;;;1.75;0.95;;;8.20;24.80;;;;;;5020388;28;20063;-86
2024/03/27 01:08:22;;;;;;;0.43;0.38;;;8.10;14.40;;;;;;5032293;28;20038;-86
2024/03/27 01:10:51;;;;;;;0.15;0.15;;;8.00;29.60;;;;;;5018180;28;20041;-85
2024/03/27 01:13:17;;;;;;;0.52;0.50;;;7.90;63.90;;;;;;4981900;28;20039;-85
2024/03/27 01:15:53;;;;;;;0.30;0.30;;;7.70;99.90;;;;;;5012375;28;20038;-85
2024/03/27 01:18:20;;;;;;;0.30;0.30;;;7.60;99.90;;;;;;5018420;28;20056;-84
2024/03/27 01:20:46;;;;;;;0.50;0.50;;;7.50;99.90;;;;;;5028636;28;20055;-87
2024/03/27 01:23:13;;;;;;;2.40;1.70;;;7.40;99.90;;;;;;5013905;28;20034;-84
2024/03/27 01:25:40;;;;;;;0.43;0.43;;;7.30;99.90;;;;;;5011666;28;20056;-87
2024/03/27 01:28:07;;;;;;;1.02;0.93;;;7.20;99.90;;;;;;5026008;28;20030;-84
2024/03/27 01:30:33;;;;;;;0.52;0.52;;;7.20;99.90;;;;;;5018697;28;20038;-85
2024/03/27 01:32:59;;;;;;;1.17;0.82;;;7.10;99.90;;;;;;5011557;28;20037;-85
2024/03/27 01:35:26;;;;;;;1.55;1.10;;;7.00;99.90;;;;;;5012218;28;20049;-85
2024/03/27 01:37:52;;;;;;;0.55;0.55;;;7.00;99.90;;;;;;4991594;28;20274;-85
2024/03/27 01:40:19;;;;;;;0.60;0.60;;;7.00;99.90;;;;;;5011672;28;20514;-85
2024/03/27 01:42:48;;;;;;;0.55;0.55;;;6.90;99.90;;;;;;5039291;28;20061;-85
2024/03/27 01:45:14;;;;;;;0.30;0.30;;;6.90;99.90;;;;;;5025482;28;20467;-86
2024/03/27 01:47:41;;;;;;;0.40;0.40;;;6.80;99.90;;;;;;4999422;28;20038;-85
2024/03/27 01:50:11;;;;;;;0.80;0.57;;;6.70;99.90;;;;;;4983986;28;20033;-85
2024/03/27 01:52:38;;;;;;;1.02;0.65;;;6.70;99.90;;;;;;5012750;28;20289;-84
2024/03/27 01:55:04;;;;;;;0.75;0.75;;;6.60;99.90;;;;;;5020313;28;20052;-84
2024/03/27 01:57:34;;;;;;;0.47;0.47;;;6.60;1.00;;;;;;5019064;28;20490;-86
2024/03/27 02:00:00;;;;;;;1.48;1.38;;;6.40;1.00;;;;;;5018575;28;20038;-85
2024/03/27 02:02:26;;;;;;;0.73;0.73;;;6.40;1.00;;;;;;5007124;28;20030;-86
2024/03/27 02:04:52;;;;;;;0.30;0.30;;;6.30;1.00;;;;;;5026590;28;20041;-85
2024/03/27 02:07:19;;;;;;;0.30;0.30;;;6.30;1.00;;;;;;4999892;28;20045;-85
2024/03/27 02:09:45;;;;;;;0.90;0.85;;;6.30;1.00;;;;;;5013048;28;20044;-86
2024/03/27 02:12:11;;;;;;;0.38;0.38;;;6.30;1.00;;;;;;5008962;28;20049;-85
2024/03/27 02:14:37;;;;;;;1.48;1.38;;;6.20;1.00;;;;;;5010721;28;20406;-85
2024/03/27 02:17:04;;;;;;;2.08;1.20;;;6.20;1.00;;;;;;5006568;28;20078;-85
2024/03/27 02:19:30;;;;;;;1.10;0.95;;;6.20;1.00;;;;;;4997201;28;20037;-85
2024/03/27 02:21:56;;;;;;;0.40;0.40;;;6.20;1.00;;;;;;5003757;28;20125;-86
2024/03/27 02:24:36;;;;;;;1.08;1.00;;;6.20;1.00;;;;;;5012739;28;20049;-86
2024/03/27 02:27:02;;;;;;;0.55;0.40;;;6.30;1.00;;;;;;5005607;28;20036;-86
2024/03/27 02:29:28;;;;;;;0.20;0.20;;;6.30;1.00;;;;;;5012318;28;20034;-87
2024/03/27 02:31:54;;;;;;;0.45;0.45;;;6.30;1.00;;;;;;5007045;28;20042;-86
2024/03/27 02:34:21;;;;;;;0.22;0.22;;;6.20;1.00;;;;;;4996550;28;20050;-86
2024/03/27 02:36:47;;;;;;;0.90;0.90;;;6.00;1.00;;;;;;5022996;28;20044;-86
2024/03/27 02:39:13;;;;;;;0.43;0.43;;;6.00;1.00;;;;;;5014493;28;20029;-86
2024/03/27 02:41:40;;;;;;;0.35;0.35;;;5.90;1.00;;;;;;5015966;28;20045;-86
2024/03/27 02:44:06;;;;;;;0.20;0.20;;;5.90;1.00;;;;;;4990635;28;20061;-84
2024/03/27 02:46:32;;;;;;;0.30;0.30;;;5.90;1.00;;;;;;5002667;28;20046;-85
2024/03/27 02:48:58;;;;;;;0.22;0.22;;;5.80;1.00;;;;;;4987957;28;20045;-86
2024/03/27 02:51:24;;;;;;;0.60;0.60;;;5.80;1.00;;;;;;5019536;28;20026;-86
2024/03/27 02:53:51;;;;;;;1.30;0.68;;;5.70;1.00;;;;;;5002073;28;20054;-86
2024/03/27 02:56:17;;;;;;;9.80;1.95;;;5.80;1.00;;;;;;5022708;28;20467;-86
2024/03/27 02:58:43;;;;;;;0.68;0.63;;;5.70;1.00;;;;;;5005354;28;20046;-85
2024/03/27 03:01:09;;;;;;;0.40;0.40;;;5.60;10.40;;;;;;5008385;28;20417;-87
2024/03/27 03:03:35;;;;;;;1.95;1.55;;;5.50;37.80;;;;;;5010896;28;20032;-85
2024/03/27 03:06:01;;;;;;;1.30;0.75;;;5.50;59.30;;;;;;5019897;28;20406;-84
2024/03/27 03:08:27;;;;;;;0.77;0.77;;;5.40;66.20;;;;;;5010861;28;20030;-85
2024/03/27 03:10:53;;;;;;;1.00;1.00;;;5.40;77.90;;;;;;5015245;28;20379;-85
2024/03/27 03:13:20;;;;;;;0.30;0.30;;;5.40;81.60;;;;;;4993740;28;20053;-85
2024/03/27 03:15:46;;;;;;;0.77;0.77;;;5.30;92.30;;;;;;5007048;28;20053;-85
2024/03/27 03:18:12;;;;;;;0.30;0.30;;;5.20;99.90;;;;;;5005731;28;20040;-85
2024/03/27 03:20:38;;;;;;;3.05;0.60;;;5.20;99.90;;;;;;5004565;28;20462;-86
2024/03/27 03:23:05;;;;;;;0.40;0.40;;;5.10;99.90;;;;;;5022206;28;20038;-88
2024/03/27 03:25:31;;;;;;;0.95;0.95;;;5.00;99.90;;;;;;5024791;28;20033;-86
2024/03/27 03:27:57;;;;;;;1.15;1.05;;;4.90;99.90;;;;;;5026947;28;20034;-85
2024/03/27 03:30:23;;;;;;;0.20;0.20;;;4.80;99.90;;;;;;5002080;28;20049;-85
2024/03/27 03:32:50;;;;;;;1.85;1.05;;;4.80;99.90;;;;;;4998571;28;20046;-86
2024/03/27 03:35:16;;;;;;;0.40;0.40;;;4.70;99.90;;;;;;4976484;28;20495;-86
2024/03/27 03:37:42;;;;;;;1.30;1.20;;;4.70;99.90;;;;;;5025522;28;20045;-86
2024/03/27 03:40:09;;;;;;;0.55;0.45;;;4.70;99.90;;;;;;5013968;28;20044;-84
2024/03/27 03:42:35;;;;;;;0.10;0.10;;;4.70;99.90;;;;;;4988724;28;20054;-86
2024/03/27 03:45:02;;;;;;;0.73;0.73;;;4.70;99.90;;;;;;4997552;28;20457;-86
2024/03/27 03:47:28;;;;;;;3.50;2.30;;;4.80;99.90;;;;;;4990895;28;20049;-86
2024/03/27 03:49:54;;;;;;;0.47;0.47;;;4.80;99.90;;;;;;5019627;28;20033;-86
2024/03/27 03:52:20;;;;;;;0.35;0.30;;;4.90;99.90;;;;;;5019265;28;20045;-86
2024/03/27 03:54:46;;;;;;;1.25;0.73;;;4.90;99.90;;;;;;5031088;28;20045;-87
2024/03/27 03:57:13;;;;;;;0.85;0.82;;;4.90;99.90;;;;;;4990988;28;20042;-85
2024/03/27 03:59:39;;;;;;;2.33;1.42;;;4.80;99.90;;;;;;5015639;28;20033;-87
2024/03/27 04:02:05;;;;;;;1.15;1.05;;;4.80;99.90;;;;;;5004680;28;20049;-86
2024/03/27 04:04:31;;;;;;;2.97;0.68;;;4.70;99.90;;;;;;5018531;28;20052;-85
2024/03/27 04:06:58;;;;;;;0.47;0.47;;;4.60;99.90;;;;;;5018445;28;20034;-86
2024/03/27 04:09:24;;;;;;;0.25;0.25;;;4.50;99.90;;;;;;5020904;28;20048;-85
2024/03/27 04:11:50;;;;;;;0.30;0.30;;;4.40;99.90;;;;;;5010376;28;20385;-86
2024/03/27 04:14:16;;;;;;;0.10;0.10;;;4.40;99.90;;;;;;5004105;28;20636;-86
2024/03/27 04:16:42;;;;;;;0.90;0.77;;;4.30;99.90;;;;;;5003437;28;20509;-86
2024/03/27 04:19:08;;;;;;;0.10;0.10;;;4.30;99.90;;;;;;5007395;28;20037;-85
2024/03/27 04:21:35;;;;;;;0.55;0.55;;;4.30;99.90;;;;;;5007957;28;20037;-86
2024/03/27 04:24:01;;;;;;;1.25;1.15;;;4.30;99.90;;;;;;5004706;28;20073;-86
2024/03/27 04:26:27;;;;;;;0.63;0.63;;;4.30;99.90;;;;;;5003792;28;20097;-86
2024/03/27 04:28:54;;;;;;;0.10;0.10;;;4.30;99.90;;;;;;4995698;28;20046;-86
2024/03/27 04:31:20;;;;;;;0.50;0.50;;;4.10;99.90;;;;;;5028483;28;20034;-86
2024/03/27 04:33:46;;;;;;;0.43;0.43;;;4.00;99.90;;;;;;5015776;28;20033;-86
2024/03/27 04:36:12;;;;;;;0.10;0.10;;;4.00;99.90;;;;;;4984734;28;20030;-86
2024/03/27 04:38:39;;;;;;;0.10;0.10;;;4.00;99.90;;;;;;5014224;28;20049;-86
2024/03/27 04:41:09;;;;;;;0.25;0.25;;;3.90;99.90;;;;;;5021423;28;20471;-86
2024/03/27 04:43:37;;;;;;;0.20;0.20;;;3.90;99.90;;;;;;4998002;28;20041;-85
2024/03/27 04:46:04;;;;;;;3.72;1.95;;;4.00;99.90;;;;;;4994567;28;20061;-86
2024/03/27 04:48:30;;;;;;;2.15;1.88;;;3.90;99.90;;;;;;4993596;28;20251;-86
2024/03/27 04:50:56;;;;;;;2.00;0.80;;;3.90;99.90;;;;;;5025217;28;20497;-86
2024/03/27 04:53:22;;;;;;;0.73;0.73;;;3.90;99.90;;;;;;5001791;28;20062;-86
2024/03/27 04:55:58;;;;;;;0.30;0.30;;;4.00;99.90;;;;;;5010465;28;20045;-86
2024/03/27 04:58:24;;;;;;;0.20;0.20;;;4.00;99.90;;;;;;5000273;28;20394;-87
2024/03/27 05:00:50;;;;;;;0.30;0.30;;;4.00;99.90;;;;;;4997649;28;20065;-86
2024/03/27 05:03:18;;;;;;;0.20;0.20;;;4.00;99.90;;;;;;4997518;28;20375;-87
2024/03/27 05:05:45;;;;;;;0.45;0.45;;;3.90;99.90;;;;;;5025784;28;20046;-86
2024/03/27 05:08:14;;;;;;;0.43;0.43;;;3.90;99.90;;;;;;5004047;28;20470;-86
2024/03/27 05:10:40;;;;;;;0.55;0.55;;;3.90;99.90;;;;;;5005897;28;20141;-86
2024/03/27 05:13:06;;;;;;;0.40;0.32;;;3.80;99.90;;;;;;5009443;28;20038;-86
2024/03/27 05:15:33;;;;;;;1.33;0.88;;;3.80;99.90;;;;;;5010870;28;20038;-86
2024/03/27 05:17:59;;;;;;;1.23;0.93;;;3.80;99.90;;;;;;5007096;28;20048;-85
2024/03/27 05:20:26;;;;;;;0.17;0.17;;;3.80;99.90;;;;;;5005685;28;20053;-86
2024/03/27 05:22:52;;;;;;;0.20;0.20;;;3.80;99.90;;;;;;5023899;28;20064;-86
2024/03/27 05:25:19;;;;;;;1.33;1.23;;;3.90;99.90;;;;;;5014342;28;20029;-86
2024/03/27 05:27:45;;;;;;;1.50;1.40;;;3.90;99.90;;;;;;5010207;28;20026;-86
2024/03/27 05:30:12;;;;;;;1.20;0.85;;;4.00;99.90;;;;;;5007664;28;20042;-85
2024/03/27 05:32:39;;;;;;;3.50;1.50;;;4.10;99.90;;;;;;4996009;28;20034;-86
2024/03/27 05:35:05;;;;;;;0.77;0.77;;;4.10;99.90;;;;;;5017759;28;20044;-86
2024/03/27 05:37:32;;;;;;;0.10;0.10;;;4.10;99.90;;;;;;5027307;28;20053;-86
2024/03/27 05:39:59;;;;;;;2.10;1.17;;;4.10;99.90;;;;;;5025726;28;20038;-86
2024/03/27 05:42:25;;;;;;;2.13;0.65;;;4.20;99.90;;;;;;5024448;28;20053;-86
2024/03/27 05:44:51;;;;;;;0.55;0.43;;;4.20;99.90;;;;;;5022950;28;20042;-86
2024/03/27 05:47:17;;;;;;;0.63;0.63;;;4.30;99.90;;;;;;5022488;28;20034;-87
2024/03/27 05:49:44;;;;;;;0.80;0.80;;;4.30;99.90;;;;;;5001553;28;20037;-87
2024/03/27 05:52:10;;;;;;;0.20;0.20;;;4.40;99.90;;;;;;5014746;28;20358;-87
2024/03/27 05:54:36;;;;;;;5.05;0.63;;;4.50;99.90;;;;;;4997078;28;20068;-86
2024/03/27 05:57:03;;;;;;;0.55;0.55;;;4.60;99.90;;;;;;5014350;28;20049;-87
2024/03/27 05:59:29;;;;;;;1.75;0.82;;;4.80;99.90;;;;;;4993192;28;20057;-86
2024/03/27 06:01:55;;;;;;;0.32;0.32;;;4.90;99.90;;;;;;4993792;28;20038;-87
2024/03/27 06:04:22;;;;;;;1.58;1.48;;;5.00;99.90;;;;;;5030625;28;20037;-87
2024/03/27 06:06:48;;;;;;;0.47;0.47;;;5.10;99.90;;;;;;5021825;28;20508;-86
2024/03/27 06:09:15;;;;;;;0.88;0.88;;;5.30;99.90;;;;;;5009420;28;20036;-85
2024/03/27 06:11:41;;;;;;;0.55;0.55;;;5.40;99.90;;;;;;5048361;28;20053;-86
2024/03/27 06:14:07;;;;;;;0.60;0.60;;;5.60;99.90;;;;;;5045307;28;20060;-88
2024/03/27 06:16:33;;;;;;;0.52;0.43;;;6.00;99.90;;;;;;5033308;28;20237;-87
2024/03/27 06:18:59;;;;;;;0.70;0.70;;;6.10;99.90;;;;;;5037668;28;20064;-87
2024/03/27 06:21:26;;;;;;;0.73;0.57;;;6.20;99.90;;;;;;5026446;28;20038;-87
2024/03/27 06:23:52;;;;;;;0.30;0.30;;;6.30;99.90;;;;;;5040975;28;20050;-87
2024/03/27 06:26:19;;;;;;;0.43;0.43;;;6.40;99.90;;;;;;5003742;28;20038;-86
2024/03/27 06:28:45;;;;;;;1.35;1.02;;;6.60;90.70;;;;;;5003447;28;20370;-87
2024/03/27 06:31:11;;;;;;;3.47;2.30;;;6.80;55.60;;;;;;5030968;28;20041;-87
2024/03/27 06:33:37;;;;;;;0.77;0.77;;;6.90;27.00;;;;;;4997305;28;20316;-86
2024/03/27 06:36:04;;;;;;;1.77;1.65;;;7.10;1.00;;;;;;5011079;28;20433;-86
2024/03/27 06:38:30;;;;;;;1.00;0.93;;;7.20;1.00;;;;;;5016071;28;20045;-88
2024/03/27 06:40:57;;;;;;;0.98;0.98;;;7.40;1.00;;;;;;5011497;28;20040;-87
2024/03/27 06:43:23;;;;;;;2.42;0.95;;;7.40;1.00;;;;;;4985782;28;20047;-87
2024/03/27 06:45:52;;;;;;;0.95;0.95;;;7.50;1.00;;;;;;4987993;28;20523;-87
2024/03/27 06:48:20;;;;;;;0.82;0.82;;;7.50;1.00;;;;;;4982503;28;20400;-87
2024/03/27 06:50:53;;;;;;;1.75;0.77;;;7.50;1.00;;;;;;4987074;28;20041;-87
2024/03/27 06:53:20;;;;;;;0.63;0.63;;;7.50;1.00;;;;;;4990797;28;20042;-88
2024/03/27 06:55:46;;;;;;;1.02;1.02;;;7.50;1.00;;;;;;4998571;28;20050;-86
2024/03/27 06:58:12;;;;;;;0.20;0.20;;;7.50;99.90;;;;;;4981253;28;20177;-86
2024/03/27 07:00:40;;;;;;;2.67;1.25;;;7.50;99.90;;;;;;4985706;28;20058;-87
2024/03/27 07:03:06;;;;;;;0.52;0.52;;;7.60;99.90;;;;;;4987887;28;20041;-87
2024/03/27 07:05:33;;;;;;;0.85;0.70;;;7.70;99.90;;;;;;5009559;28;20038;-88
2024/03/27 07:07:59;;;;;;;1.30;1.02;;;7.70;99.90;;;;;;5013227;28;20038;-86
2024/03/27 07:10:25;;;;;;;0.60;0.52;;;7.70;99.90;;;;;;4981003;28;20050;-87
2024/03/27 07:12:51;;;;;;;1.23;1.13;;;7.70;99.90;;;;;;4987309;28;20115;-87
2024/03/27 07:15:18;;;;;;;0.93;0.90;;;7.70;99.90;;;;;;4993707;28;20044;-88
2024/03/27 07:17:46;;;;;;;1.27;0.70;;;7.80;99.90;;;;;;4971495;28;20043;-84
2024/03/27 07:20:12;;;;;;;0.38;0.38;;;7.80;99.90;;;;;;4975672;28;20050;-85
2024/03/27 07:22:38;;;;;;;1.27;1.17;;;7.90;99.90;;;;;;4978170;28;20038;-85
2024/03/27 07:25:05;;;;;;;2.45;1.67;;;8.00;99.90;;;;;;4979564;28;20058;-84
2024/03/27 07:27:33;;;;;;;1.75;0.80;;;8.20;99.90;;;;;;4970523;28;20042;-83
2024/03/27 07:29:59;;;;;;;3.08;0.60;;;8.30;99.90;;;;;;4988641;28;20026;-79
2024/03/27 07:32:25;;;;;;;0.30;0.30;;;8.40;99.90;;;;;;4989011;28;20041;-82
2024/03/27 07:34:52;;;;;;;0.65;0.65;;;8.50;92.80;;;;;;4986516;28;20047;-82
2024/03/27 07:37:18;;;;;;;0.70;0.70;;;8.40;93.30;;;;;;4982372;28;20057;-83
2024/03/27 07:39:44;;;;;;;1.75;1.20;;;8.40;97.40;;;;;;4970968;28;20039;-83
2024/03/27 07:42:10;;;;;;;1.23;0.85;;;8.30;99.90;;;;;;4990941;28;20061;-83
2024/03/27 07:44:37;;;;;;;0.20;0.20;;;8.40;99.90;;;;;;4968820;28;20632;-83
2024/03/27 07:47:03;;;;;;;0.30;0.30;;;8.50;99.90;;;;;;4982335;28;20374;-83
2024/03/27 07:49:29;;;;;;;0.60;0.60;;;8.50;90.90;;;;;;4991085;28;20026;-82
2024/03/27 07:51:55;;;;;;;0.77;0.77;;;8.60;52.50;;;;;;4968197;28;20038;-82
2024/03/27 07:54:21;;;;;;;0.30;0.30;;;8.70;34.00;;;;;;4976844;28;20034;-82
2024/03/27 07:56:47;;;;;;;0.82;0.82;;;8.60;38.20;;;;;;4974908;28;20062;-82
2024/03/27 07:59:14;;;;;;;2.05;1.55;;;8.80;64.40;;;;;;4981021;28;20034;-83
2024/03/27 08:01:40;;;;;;;1.67;1.30;;;8.90;34.70;;;;;;4975549;28;20042;-83
2024/03/27 08:04:06;;;;;;;1.13;1.10;;;9.00;9.30;;;;;;4984778;28;20035;-83
2024/03/27 08:06:32;;;;;;;0.88;0.88;;;8.90;1.00;;;;;;5002546;28;20034;-83
2024/03/27 08:08:58;;;;;;;8.60;2.92;;;8.80;21.40;;;;;;4979320;28;20027;-83
2024/03/27 08:11:25;;;;;;;2.53;0.90;;;8.80;37.20;;;;;;5015907;28;20065;-85
2024/03/27 08:13:52;;;;;;;0.60;0.60;;;8.90;61.10;;;;;;4965360;28;20036;-84
2024/03/27 08:16:18;;;;;;;2.75;1.75;;;9.00;15.10;;;;;;4995478;28;20054;-84
2024/03/27 08:18:46;;;;;;;0.30;0.30;;;9.10;15.40;;;;;;4976682;28;20145;-84
2024/03/27 08:21:12;;;;;;;0.82;0.82;;;9.10;12.70;;;;;;5009301;28;20053;-85
2024/03/27 08:23:39;;;;;;;1.15;0.95;;;9.10;11.20;;;;;;5001020;28;20037;-85
2024/03/27 08:26:05;;;;;;;2.25;1.20;;;9.30;1.00;;;;;;4975297;28;20445;-85
2024/03/27 08:28:32;;;;;;;1.65;1.15;;;9.30;1.00;;;;;;4979488;28;20023;-84
2024/03/27 08:30:58;;;;;;;0.55;0.55;;;9.30;1.00;;;;;;4987993;28;20038;-83
2024/03/27 08:33:25;;;;;;;0.50;0.50;;;9.30;1.00;;;;;;5001323;28;20038;-85
2024/03/27 08:35:52;;;;;;;1.40;1.02;;;9.20;1.00;;;;;;5021944;28;20038;-84
2024/03/27 08:38:18;;;;;;;0.57;0.57;;;9.30;1.00;;;;;;4999756;28;20398;-87
2024/03/27 08:40:51;;;;;;;0.40;0.40;;;9.40;1.00;;;;;;4975449;28;20364;-86
2024/03/27 08:43:19;;;;;;;0.73;0.73;;;9.60;1.00;;;;;;4975977;28;20408;-87
2024/03/27 08:45:45;;;;;;;4.30;1.02;;;9.70;1.00;;;;;;4976220;28;20047;-87
2024/03/27 08:48:12;;;;;;;0.40;0.40;;;9.80;1.00;;;;;;4989488;28;20046;-92
2024/03/27 08:50:39;;;;;;;2.08;1.25;;;9.90;1.00;;;;;;4995755;28;20027;-90
2024/03/27 08:53:05;;;;;;;0.85;0.75;;;10.10;1.00;;;;;;5016002;28;20034;-87
2024/03/27 08:55:32;;;;;;;0.15;0.15;;;10.10;1.00;;;;;;5020033;28;20046;-84
2024/03/27 08:57:58;;;;;;;0.68;0.63;;;10.10;1.00;;;;;;5001903;28;20031;-87
2024/03/27 09:00:25;;;;;;;1.42;1.17;;;10.10;1.00;;;;;;4976757;28;20455;-84
2024/03/27 09:02:51;;;;;;;0.40;0.40;;;10.20;1.00;;;;;;4966455;28;20037;-88
2024/03/27 09:05:18;;;;;;;0.30;0.30;;;10.20;1.00;;;;;;4975580;28;20047;-88
2024/03/27 09:07:44;;;;;;;2.70;1.13;;;10.40;1.00;;;;;;4979182;28;20039;-88
2024/03/27 09:10:10;;;;;;;1.17;1.08;;;10.60;1.00;;;;;;5015798;28;20053;-87
2024/03/27 09:12:37;;;;;;;0.40;0.40;;;10.80;99.90;;;;;;5010033;28;20411;-89
2024/03/27 09:15:04;;;;;;;0.30;0.30;;;11.00;99.90;;;;;;4970011;28;20486;-86
2024/03/27 09:17:30;;;;;;;2.13;0.82;;;11.20;99.90;;;;;;4993010;28;20038;-87
2024/03/27 09:19:57;;;;;;;1.15;1.05;;;11.50;99.90;;;;;;4970924;28;20141;-88
2024/03/27 09:22:23;;;;;;;0.63;0.63;;;11.70;99.90;;;;;;4981061;28;20376;-87
2024/03/27 09:24:54;;;;;;;0.85;0.85;;;11.90;99.90;;;;;;5025850;28;20042;-87
2024/03/27 09:27:21;;;;;;;0.30;0.30;;;12.20;99.90;;;;;;4999192;28;20042;-89
2024/03/27 09:29:55;;;;;;;1.50;1.40;;;12.40;99.90;;;;;;4976778;28;20042;-88
2024/03/27 09:32:21;;;;;;;1.48;0.80;;;12.90;99.90;;;;;;4979238;28;20038;-91
2024/03/27 09:34:48;;;;;;;0.68;0.57;;;13.30;99.90;;;;;;4975624;28;20031;-90
2024/03/27 09:37:15;;;;;;;1.45;0.75;;;13.10;99.90;;;;;;4972388;28;20055;-90
2024/03/27 09:39:42;;;;;;;0.85;0.73;;;12.80;99.90;;;;;;4964168;28;20035;-88
2024/03/27 09:42:08;;;;;;;1.05;0.80;;;12.80;99.90;;;;;;5000714;28;20474;-86
2024/03/27 09:44:37;;;;;;;3.03;0.43;;;12.50;99.90;;;;;;4995207;28;20081;-89
2024/03/27 09:47:05;;;;;;;2.13;1.02;;;12.40;99.90;;;;;;5025000;28;20054;-85
2024/03/27 09:49:32;;;;;;;0.68;0.65;;;12.50;99.90;;;;;;5006842;28;20033;-92
2024/03/27 09:51:59;;;;;;;0.50;0.50;;;12.80;99.90;;;;;;4998558;28;20038;-75
2024/03/27 09:54:28;;;;;;;0.70;0.57;;;13.00;99.90;;;;;;5020585;28;20041;-84
2024/03/27 09:56:58;;;;;;;0.73;0.60;;;13.00;99.90;;;;;;5007240;28;20156;-80
2024/03/27 09:59:24;;;;;;;3.13;0.52;;;13.30;99.90;;;;;;4973240;28;20054;-78
2024/03/27 10:02:04;;;;;;;2.33;1.73;;;13.40;99.90;;;;;;4995139;28;20038;-82
2024/03/27 10:04:30;;;;;;;1.05;0.40;;;13.50;99.90;;;;;;4996850;28;20040;-89
2024/03/27 10:06:57;;;;;;;0.98;0.98;;;13.20;99.90;;;;;;5042486;28;20052;-84
2024/03/27 10:09:25;;;;;;;0.52;0.50;;;13.60;99.90;;;;;;5002479;28;20043;-82
2024/03/27 10:11:52;;;;;;;0.25;0.25;;;13.80;99.90;;;;;;4999315;28;20049;-81
2024/03/27 10:14:19;;;;;;;1.05;1.00;;;13.20;99.90;;;;;;5010793;28;20034;-76
2024/03/27 10:16:45;;;;;;;1.10;0.90;;;12.90;99.90;;;;;;5007869;28;20054;-81
2024/03/27 10:19:12;;;;;;;1.58;0.63;;;13.20;99.90;;;;;;5007825;28;20037;-80
2024/03/27 10:21:38;;;;;;;1.50;1.38;;;13.40;99.90;;;;;;5020215;28;20033;-86
2024/03/27 10:24:06;;;;;;;1.38;1.15;;;13.20;99.90;;;;;;5018826;28;20033;-85
2024/03/27 10:26:33;;;;;;;1.20;0.50;;;13.10;99.90;;;;;;5031783;28;20033;-81
2024/03/27 10:29:00;;;;;;;2.28;1.30;;;13.30;99.90;;;;;;4993822;28;20052;-81
2024/03/27 10:31:27;;;;;;;0.82;0.50;;;13.30;99.90;;;;;;5013972;28;20403;-80
2024/03/27 10:33:54;;;;;;;1.17;1.13;;;13.60;99.90;;;;;;5014134;28;20038;-82
2024/03/27 10:36:25;;;;;;;1.13;1.02;;;13.80;99.90;;;;;;4998471;28;20053;-83
2024/03/27 10:38:56;;;;;;;1.92;1.70;;;13.90;99.90;;;;;;5017990;28;20061;-79
2024/03/27 10:41:25;;;;;;;0.50;0.50;;;13.60;99.90;;;;;;5012648;28;20038;-81
2024/03/27 10:43:58;;;;;;;0.40;0.40;;;13.40;99.90;;;;;;4989744;28;20055;-82
2024/03/27 10:46:27;;;;;;;0.95;0.95;;;13.40;99.90;;;;;;4974867;28;20043;-78
2024/03/27 10:48:55;;;;;;;4.07;0.90;;;13.50;99.90;;;;;;4987380;28;20029;-81
2024/03/27 10:51:24;;;;;;;0.50;0.43;;;13.40;99.90;;;;;;5008759;28;20459;-82
2024/03/27 10:53:50;;;;;;;0.70;0.45;;;13.50;99.90;;;;;;4994997;28;20037;-83
2024/03/27 10:56:17;;;;;;;0.57;0.57;;;13.30;99.90;;;;;;4991147;28;20045;-81
2024/03/27 10:58:44;;;;;;;0.50;0.50;;;13.40;99.90;;;;;;4987243;28;20045;-80
2024/03/27 11:01:12;;;;;;;1.48;0.90;;;13.40;99.90;;;;;;4980887;28;20501;-83
2024/03/27 11:03:41;;;;;;;1.20;0.93;;;13.50;99.90;;;;;;4987005;28;20038;-82
2024/03/27 11:06:13;;;;;;;6.30;1.92;;;13.50;99.90;;;;;;4978116;28;20405;-83
2024/03/27 11:08:43;;;;;;;0.20;0.20;;;13.60;99.90;;;;;;4984591;28;20034;-82
2024/03/27 11:11:14;;;;;;;0.35;0.35;;;13.40;99.90;;;;;;4997887;28;20388;-82
2024/03/27 11:13:45;;;;;;;0.28;0.28;;;13.50;99.90;;;;;;4983101;28;20364;-83
2024/03/27 11:16:13;;;;;;;0.30;0.30;;;13.60;99.90;;;;;;4985851;28;20046;-84
2024/03/27 11:18:44;;;;;;;0.20;0.20;;;13.50;99.90;;;;;;4991992;28;20031;-81
2024/03/27 11:21:11;;;;;;;0.20;0.20;;;13.60;99.90;;;;;;5026837;28;20048;-82
2024/03/27 11:23:40;;;;;;;0.30;0.30;;;13.50;99.90;;;;;;5027214;28;20030;-83
2024/03/27 11:26:07;;;;;;;0.28;0.28;;;13.40;99.90;;;;;;5000403;28;20398;-84
2024/03/27 11:28:33;;;;;;;13.57;0.93;;;13.40;99.90;;;;;;5013743;28;20042;-82
2024/03/27 11:31:03;;;;;;;0.22;0.22;;;13.50;99.90;;;;;;4996853;28;20037;-84
2024/03/27 11:33:29;;;;;;;0.17;0.17;;;13.70;99.90;;;;;;4970030;28;20035;-83
2024/03/27 11:35:55;;;;;;;0.10;0.10;;;13.90;99.90;;;;;;4994664;28;20054;-83
2024/03/27 11:38:22;;;;;;;0.10;0.10;;;14.10;99.90;;;;;;4964889;28;20047;-81
2024/03/27 11:40:52;;;;;;;1.05;0.75;;;13.90;99.90;;;;;;4999520;28;20034;-84
2024/03/27 11:43:19;;;;;;;0.10;0.10;;;13.60;99.90;;;;;;4989924;28;20057;-85
2024/03/27 11:45:47;;;;;;;0.10;0.10;;;13.30;99.90;;;;;;5002547;28;20026;-81
2024/03/27 11:48:14;;;;;;;0.10;0.10;;;13.00;99.90;;;;;;4988269;28;20050;-85
2024/03/27 11:50:44;;;;;;;0.10;0.10;;;13.00;99.90;;;;;;4994563;28;20045;-83
2024/03/27 11:53:10;;;;;;;0.30;0.30;;;13.10;99.90;;;;;;5016767;28;20098;-82
2024/03/27 11:55:36;;;;;;;0.20;0.20;;;13.10;99.90;;;;;;4998769;28;20023;-87
2024/03/27 11:58:03;;;;;;;0.10;0.10;;;13.00;99.90;;;;;;5010259;28;20045;-83
2024/03/27 12:00:29;;;;;;;0.20;0.20;;;12.80;99.90;;;;;;4992638;28;20041;-80
2024/03/27 12:03:01;;;;;;;0.20;0.20;;;12.80;99.90;;;;;;5002444;28;20022;-81
2024/03/27 12:05:29;;;;;;;0.28;0.28;;;12.70;99.90;;;;;;4998159;28;20030;-80
2024/03/27 12:07:56;;;;;;;0.10;0.10;;;12.70;99.90;;;;;;5018948;28;20028;-81
2024/03/27 12:10:22;;;;;;;0.57;0.57;;;12.90;99.90;;;;;;5015996;28;20041;-83
2024/03/27 12:12:49;;;;;;;0.40;0.40;;;12.90;99.90;;;;;;5008870;28;20263;-82
2024/03/27 12:15:18;;;;;;;0.10;0.10;;;12.90;99.90;;;;;;5018679;28;20034;-83
2024/03/27 12:17:45;;;;;;;0.20;0.20;;;12.80;99.90;;;;;;4996360;28;20035;-83
2024/03/27 12:20:14;;;;;;;0.10;0.10;;;12.70;99.90;;;;;;5036557;28;20462;-84
2024/03/27 12:22:41;;;;;;;0.10;0.10;;;12.60;99.90;;;;;;5000937;28;20529;-85
2024/03/27 12:25:08;;;;;;;0.10;0.10;;;12.70;99.90;;;;;;4976411;28;20496;-83
2024/03/27 12:27:37;;;;;;;2.47;0.32;;;12.60;99.90;;;;;;5013018;28;20030;-82
2024/03/27 12:30:03;;;;;;;0.60;0.30;;;12.50;99.90;;;;;;5005496;28;20050;-82
2024/03/27 12:32:30;;;;;;;0.70;0.45;;;12.50;99.90;;;;;;5009727;28;20363;-82
2024/03/27 12:34:58;;;;;;;0.10;0.10;;;12.50;99.90;;;;;;5006537;28;20057;-81
2024/03/27 12:37:25;;;;;;;0.10;0.10;;;12.40;99.90;;;;;;5025590;28;20033;-78
2024/03/27 12:39:52;;;;;;;0.10;0.10;;;12.20;99.90;;;;;;5013705;28;20061;-79
2024/03/27 12:42:18;;;;;;;0.10;0.10;;;12.00;99.90;;;;;;4992920;28;20062;-78
2024/03/27 12:44:44;;;;;;;0.10;0.10;;;12.10;99.90;;;;;;4984745;28;20475;-79
2024/03/27 12:47:11;;;;;;;0.10;0.10;;;12.00;99.90;;;;;;4991952;28;20053;-78
2024/03/27 12:49:37;;;;;;;0.57;0.40;;;12.00;99.90;;;;;;4989912;28;20030;-79
2024/03/27 12:52:03;;;;;;;0.10;0.10;;;12.10;99.90;;;;;;5004152;28;20030;-78